Flight Track Log - Related Links

Times and Time Zones

All times are in EDT time to prevent confusion due to time zone crossing. See the FIN3183 flight status page for this flight to view local times or setup timezone preferences in your user account.

Time Position Orientation Groundspeed Altitude Reporting Facility
EDT Latitude Longitude Course Direction KTS MPH feet Rate Location/Type
Tue 11:20:00 AM 60.1155 24.3987 235° Southwest  Level Estimated
Tue 11:21:00 AM 60.0477 24.2120 234° Southwest  Level Estimated
Tue 11:22:00 AM 59.9797 24.0261 234° Southwest  Level Estimated
Tue 11:23:00 AM 59.9114 23.8410 234° Southwest  Level Estimated
Tue 11:24:00 AM 59.8429 23.6566 234° Southwest  Level Estimated
Tue 11:25:00 AM 59.7741 23.4730 233° Southwest  Level Estimated
Tue 11:26:00 AM 59.7050 23.2901 233° Southwest  Level Estimated
Tue 11:27:00 AM 59.6357 23.1080 233° Southwest  Level Estimated
Tue 11:28:00 AM 59.5661 22.9267 233° Southwest  Level Estimated
Tue 11:29:00 AM 59.4963 22.7460 233° Southwest  Level Estimated
Tue 11:30:00 AM 59.4262 22.5662 233° Southwest  Level Estimated
Tue 11:31:00 AM 59.3559 22.3871 232° Southwest  Level Estimated
Tue 11:32:00 AM 59.2853 22.2087 232° Southwest  Level Estimated
Tue 11:33:00 AM 59.2145 22.0311 232° Southwest  Level Estimated
Tue 11:34:00 AM 59.1435 21.8542 232° Southwest  Level Estimated
Tue 11:35:00 AM 59.0722 21.6780 232° Southwest  Level Estimated
Tue 11:36:00 AM 59.0007 21.5026 232° Southwest  Level Estimated
Tue 11:37:00 AM 58.9290 21.3279 232° Southwest  Level Estimated
Tue 11:38:00 AM 58.8570 21.1539 231° Southwest  Level Estimated
Tue 11:39:00 AM 58.7847 20.9807 231° Southwest  Level Estimated
Tue 11:40:00 AM 58.7123 20.8081 231° Southwest  Level Estimated
Tue 11:41:00 AM 58.6396 20.6363 231° Southwest  Level Estimated
Tue 11:42:00 AM 58.5667 20.4652 231° Southwest  Level Estimated
Tue 11:43:00 AM 58.4936 20.2948 231° Southwest  Level Estimated
Tue 11:44:00 AM 58.4202 20.1251 230° Southwest  Level Estimated
Tue 11:45:00 AM 58.3466 19.9562 230° Southwest  Level Estimated
Tue 11:46:00 AM 58.2728 19.7879 230° Southwest  Level Estimated
Tue 11:47:00 AM 58.1988 19.6203 230° Southwest  Level Estimated
Tue 11:48:00 AM 58.1245 19.4535 230° Southwest  Level Estimated
Tue 11:49:00 AM 58.0501 19.2873 230° Southwest  Level Estimated
Tue 11:50:00 AM 57.9754 19.1218 230° Southwest  Level Estimated
Tue 11:51:00 AM 57.9005 18.9570 230° Southwest  Level Estimated
Tue 11:52:00 AM 57.8254 18.7929 229° Southwest  Level Estimated
Tue 11:53:00 AM 57.7501 18.6295 229° Southwest  Level Estimated
Tue 11:54:00 AM 57.6745 18.4667 229° Southwest  Level Estimated
Tue 11:55:00 AM 57.5988 18.3047 229° Southwest  Level Estimated
Tue 11:56:00 AM 57.5229 18.1433 229° Southwest  Level Estimated
Tue 11:57:00 AM 57.4467 17.9826 229° Southwest  Level Estimated
Tue 11:58:00 AM 57.3704 17.8225 229° Southwest  Level Estimated
Tue 11:59:00 AM 57.2938 17.6631 228° Southwest  Level Estimated
Tue 12:00:00 PM 57.2171 17.5044 228° Southwest  Level Estimated
Tue 12:01:00 PM 57.1401 17.3463 228° Southwest  Level Estimated
Tue 12:02:00 PM 57.0630 17.1889 228° Southwest  Level Estimated
Tue 12:03:00 PM 56.9856 17.0322 228° Southwest  Level Estimated
Tue 12:04:00 PM 56.9081 16.8761 228° Southwest  Level Estimated
Tue 12:05:00 PM 56.8303 16.7206 228° Southwest  Level Estimated
Tue 12:06:00 PM 56.7524 16.5658 227° Southwest  Level Estimated
Tue 12:07:00 PM 56.6743 16.4116 227° Southwest  Level Estimated
Tue 12:08:00 PM 56.5960 16.2581 227° Southwest  Level Estimated
Tue 12:09:00 PM 56.5175 16.1052 227° Southwest  Level Estimated
Tue 12:10:00 PM 56.4388 15.9530 227° Southwest  Level Estimated
Tue 12:11:00 PM 56.3599 15.8013 227° Southwest  Level Estimated
Tue 12:12:00 PM 56.2809 15.6503 227° Southwest  Level Estimated
Tue 12:13:00 PM 56.2016 15.5000 227° Southwest  Level Estimated
Tue 12:14:00 PM 56.1222 15.3502 226° Southwest  Level Estimated
Tue 12:15:00 PM 56.0426 15.2011 226° Southwest  Level Estimated
Tue 12:16:00 PM 55.9628 15.0525 226° Southwest  Level Estimated
Tue 12:17:00 PM 55.8829 14.9046 226° Southwest  Level Estimated
Tue 12:18:00 PM 55.8028 14.7573 226° Southwest  Level Estimated
Tue 12:19:00 PM 55.7225 14.6106 226° Southwest  Level Estimated
Tue 12:20:00 PM 55.6420 14.4645 226° Southwest  Level Estimated
Tue 12:21:00 PM 55.5613 14.3190 226° Southwest  Level Estimated
Tue 12:22:00 PM 55.4805 14.1741 225° Southwest  Level Estimated
Tue 12:23:00 PM 55.3995 14.0298 225° Southwest  Level Estimated
Tue 12:24:00 PM 55.3183 13.8861 225° Southwest  Level Estimated
Tue 12:25:00 PM 55.2370 13.7429 225° Southwest  Level Estimated
Tue 12:26:00 PM 55.1555 13.6004 225° Southwest  Level Estimated
Tue 12:27:00 PM 55.0738 13.4584 225° Southwest  Level Estimated
Tue 12:28:00 PM 54.9920 13.3171 225° Southwest  Level Estimated
Tue 12:29:00 PM 54.9100 13.1763 225° Southwest  Level Estimated
Tue 12:30:00 PM 54.8279 13.0360 225° Southwest  Level Estimated
Tue 12:31:00 PM 54.7456 12.8964 224° Southwest  Level Estimated
Tue 12:32:00 PM 54.6631 12.7573 224° Southwest  Level Estimated
Tue 12:33:00 PM 54.5804 12.6187 224° Southwest  Level Estimated
Tue 12:34:00 PM 54.4977 12.4808 224° Southwest  Level Estimated
Tue 12:35:00 PM 54.4147 12.3434 224° Southwest  Level Estimated
Tue 12:36:00 PM 54.3316 12.2065 224° Southwest  Level Estimated
Tue 12:37:00 PM 54.2483 12.0702 224° Southwest  Level Estimated
Tue 12:38:00 PM 54.1649 11.9344 224° Southwest  Level Estimated
Tue 12:39:00 PM 54.0814 11.7992 224° Southwest  Level Estimated
Tue 12:40:00 PM 53.9977 11.6645 223° Southwest  Level Estimated
Tue 12:41:00 PM 53.9138 11.5304 223° Southwest  Level Estimated
Tue 12:42:00 PM 53.8298 11.3968 223° Southwest  Level Estimated
Tue 12:43:00 PM 53.7456 11.2638 223° Southwest  Level Estimated
Tue 12:44:00 PM 53.6613 11.1313 223° Southwest  Level Estimated
Tue 12:45:00 PM 53.5769 10.9993 223° Southwest  Level Estimated
Tue 12:46:00 PM 53.4923 10.8678 223° Southwest  Level Estimated
Tue 12:47:00 PM 53.4075 10.7369 223° Southwest  Level Estimated
Tue 12:48:00 PM 53.3227 10.6065 223° Southwest  Level Estimated
Tue 12:49:00 PM 53.2376 10.4766 222° Southwest  Level Estimated
Tue 12:50:00 PM 53.1525 10.3472 222° Southwest  Level Estimated
Tue 12:51:00 PM 53.0672 10.2183 222° Southwest  Level Estimated
Tue 12:52:00 PM 52.9817 10.0899 222° Southwest  Level Estimated
Tue 12:53:00 PM 52.8961 9.9621 222° Southwest  Level Estimated
Tue 12:54:00 PM 52.8104 9.8348 222° Southwest  Level Estimated
Tue 12:55:00 PM 52.7246 9.7079 222° Southwest  Level Estimated
Tue 12:56:00 PM 52.6386 9.5815 222° Southwest  Level Estimated
Tue 12:57:00 PM 52.5524 9.4557 222° Southwest  Level Estimated
Tue 12:58:00 PM 52.4662 9.3303 222° Southwest  Level Estimated
Tue 12:59:00 PM 52.3798 9.2055 221° Southwest  Level Estimated
Tue 01:00:00 PM 52.2933 9.0811 221° Southwest  Level Estimated
Tue 01:01:00 PM 52.2066 8.9572 221° Southwest  Level Estimated
Tue 01:02:00 PM 52.1199 8.8338 221° Southwest  Level Estimated
Tue 01:03:00 PM 52.0329 8.7108 221° Southwest  Level Estimated
Tue 01:04:00 PM 51.9459 8.5884 221° Southwest  Level Estimated
Tue 01:05:00 PM 51.8587 8.4664 221° Southwest  Level Estimated
Tue 01:06:00 PM 51.7715 8.3449 221° Southwest  Level Estimated
Tue 01:07:00 PM 51.6841 8.2239 221° Southwest  Level Estimated
Tue 01:08:00 PM 51.5965 8.1033 221° Southwest  Level Estimated
Tue 01:09:00 PM 51.5089 7.9832 220° Southwest  Level Estimated
Tue 01:10:00 PM 51.4211 7.8635 220° Southwest  Level Estimated
Tue 01:11:00 PM 51.3332 7.7443 220° Southwest  Level Estimated
Tue 01:12:00 PM 51.2452 7.6256 220° Southwest  Level Estimated
Tue 01:13:00 PM 51.1570 7.5073 220° Southwest  Level Estimated
Tue 01:14:00 PM 51.0687 7.3895 220° Southwest  Level Estimated
Tue 01:15:00 PM 50.9804 7.2721 220° Southwest  Level Estimated
Tue 01:16:00 PM 50.8919 7.1552 220° Southwest  Level Estimated
Tue 01:17:00 PM 50.8033 7.0387 220° Southwest  Level Estimated
Tue 01:18:00 PM 50.7145 6.9226 220° Southwest  Level Estimated
Tue 01:19:00 PM 50.6257 6.8070 220° Southwest  Level Estimated
Tue 01:20:00 PM 50.5367 6.6919 219° Southwest  Level Estimated
Tue 01:21:00 PM 50.4477 6.5771 219° Southwest  Level Estimated
Tue 01:22:00 PM 50.3585 6.4628 219° Southwest  Level Estimated
Tue 01:23:00 PM 50.2692 6.3489 219° Southwest  Level Estimated
Tue 01:24:00 PM 50.1798 6.2355 219° Southwest  Level Estimated
Tue 01:25:00 PM 50.0903 6.1225 219° Southwest  Level Estimated
Tue 01:26:00 PM 50.0006 6.0099 219° Southwest  Level Estimated
Tue 01:27:00 PM 49.9109 5.8977 219° Southwest  Level Estimated
Tue 01:28:00 PM 49.8211 5.7859 219° Southwest  Level Estimated
Tue 01:29:00 PM 49.7311 5.6746 219° Southwest  Level Estimated
Tue 01:30:00 PM 49.6411 5.5636 219° Southwest  Level Estimated
Tue 01:31:00 PM 49.5509 5.4531 219° Southwest  Level Estimated
Tue 01:32:00 PM 49.4607 5.3430 218° Southwest  Level Estimated
Tue 01:33:00 PM 49.3703 5.2333 218° Southwest  Level Estimated
Tue 01:34:00 PM 49.2798 5.1239 218° Southwest  Level Estimated
Tue 01:35:00 PM 49.1884 5.0141 218° Southwest  Level Estimated
Tue 01:36:00 PM 49.0970 4.9046 218° Southwest  Level Estimated
Tue 01:37:00 PM 49.0054 4.7955 218° Southwest  Level Estimated
Tue 01:38:00 PM 48.9137 4.6869 218° Southwest  Level Estimated
Tue 01:39:00 PM 48.8219 4.5786 218° Southwest  Level Estimated
Tue 01:40:00 PM 48.7301 4.4708 218° Southwest  Level Estimated
Tue 01:41:00 PM 48.6381 4.3633 218° Southwest  Level Estimated
Tue 01:42:00 PM 48.5460 4.2562 218° Southwest  Level Estimated
Tue 01:43:00 PM 48.4538 4.1495 218° Southwest  Level Estimated
Tue 01:44:00 PM 48.3615 4.0432 217° Southwest  Level Estimated
Tue 01:45:00 PM 48.2692 3.9373 217° Southwest  Level Estimated
Tue 01:46:00 PM 48.1767 3.8318 217° Southwest  Level Estimated
Tue 01:47:00 PM 48.0841 3.7266 217° Southwest  Level Estimated
Tue 01:48:00 PM 47.9915 3.6218 217° Southwest  Level Estimated
Tue 01:49:00 PM 47.8987 3.5174 217° Southwest  Level Estimated
Tue 01:50:00 PM 47.8058 3.4134 217° Southwest  Level Estimated
Tue 01:51:00 PM 47.7129 3.3097 217° Southwest  Level Estimated
Tue 01:52:00 PM 47.6199 3.2064 217° Southwest  Level Estimated
Tue 01:53:00 PM 47.5267 3.1035 217° Southwest  Level Estimated
Tue 01:54:00 PM 47.4335 3.0010 217° Southwest  Level Estimated
Tue 01:55:00 PM 47.3402 2.8988 217° Southwest  Level Estimated
Tue 01:56:00 PM 47.2468 2.7970 217° Southwest  Level Estimated
Tue 01:57:00 PM 47.1533 2.6955 216° Southwest  Level Estimated
Tue 01:58:00 PM 47.0597 2.5944 216° Southwest  Level Estimated
Tue 01:59:00 PM 46.9660 2.4936 216° Southwest  Level Estimated
Tue 02:00:00 PM 46.8722 2.3932 216° Southwest  Level Estimated
Tue 02:01:00 PM 46.7784 2.2931 216° Southwest  Level Estimated
Tue 02:02:00 PM 46.6844 2.1934 216° Southwest  Level Estimated
Tue 02:03:00 PM 46.5904 2.0940 216° Southwest  Level Estimated
Tue 02:04:00 PM 46.4963 1.9950 216° Southwest  Level Estimated
Tue 02:05:00 PM 46.4021 1.8964 216° Southwest  Level Estimated
Tue 02:06:00 PM 46.3078 1.7980 216° Southwest  Level Estimated
Tue 02:07:00 PM 46.2135 1.7000 216° Southwest  Level Estimated
Tue 02:08:00 PM 46.1190 1.6023 216° Southwest  Level Estimated
Tue 02:09:00 PM 46.0245 1.5050 216° Southwest  Level Estimated
Tue 02:10:00 PM 45.9299 1.4080 216° Southwest  Level Estimated
Tue 02:11:00 PM 45.8352 1.3113 215° Southwest  Level Estimated
Tue 02:12:00 PM 45.7404 1.2150 215° Southwest  Level Estimated
Tue 02:13:00 PM 45.6456 1.1190 215° Southwest  Level Estimated
Tue 02:14:00 PM 45.5506 1.0233 215° Southwest  Level Estimated
Tue 02:15:00 PM 45.4556 0.9280 215° Southwest  Level Estimated
Tue 02:16:00 PM 45.3605 0.8329 215° Southwest  Level Estimated
Tue 02:17:00 PM 45.2653 0.7382 215° Southwest  Level Estimated
Tue 02:18:00 PM 45.1701 0.6438 215° Southwest  Level Estimated
Tue 02:19:00 PM 45.0748 0.5497 215° Southwest  Level Estimated
Tue 02:20:00 PM 44.9794 0.4559 215° Southwest  Level Estimated
Tue 02:21:00 PM 44.8839 0.3624 215° Southwest  Level Estimated
Tue 02:22:00 PM 44.7883 0.2693 215° Southwest  Level Estimated
Tue 02:23:00 PM 44.6927 0.1764 215° Southwest  Level Estimated
Tue 02:24:00 PM 44.5970 0.0839 215° Southwest  Level Estimated
Tue 02:25:00 PM 44.5012 -0.0083 214° Southwest  Level Estimated
Tue 02:26:00 PM 44.4053 -0.1003 214° Southwest  Level Estimated
Tue 02:27:00 PM 44.3094 -0.1919 214° Southwest  Level Estimated
Tue 02:28:00 PM 44.2134 -0.2832 214° Southwest  Level Estimated
Tue 02:29:00 PM 44.1173 -0.3743 214° Southwest  Level Estimated
Tue 02:30:00 PM 44.0212 -0.4650 214° Southwest  Level Estimated
Tue 02:31:00 PM 43.9249 -0.5555 214° Southwest  Level Estimated
Tue 02:32:00 PM 43.8287 -0.6456 214° Southwest  Level Estimated
Tue 02:33:00 PM 43.7323 -0.7355 214° Southwest  Level Estimated
Tue 02:34:00 PM 43.6359 -0.8251 214° Southwest  Level Estimated
Tue 02:35:00 PM 43.5394 -0.9143 214° Southwest  Level Estimated
Tue 02:36:00 PM 43.4428 -1.0034 214° Southwest  Level Estimated
Tue 02:37:00 PM 43.3462 -1.0921 214° Southwest  Level Estimated
Tue 02:38:00 PM 43.2495 -1.1805 214° Southwest  Level Estimated
Tue 02:39:00 PM 43.1527 -1.2687 214° Southwest  Level Estimated
Tue 02:40:00 PM 43.0558 -1.3565 214° Southwest  Level Estimated
Tue 02:41:00 PM 42.9589 -1.4441 213° Southwest  Level Estimated
Tue 02:42:00 PM 42.8619 -1.5315 213° Southwest  Level Estimated
Tue 02:43:00 PM 42.7649 -1.6185 213° Southwest  Level Estimated
Tue 02:44:00 PM 42.6678 -1.7053 213° Southwest  Level Estimated
Tue 02:45:00 PM 42.5706 -1.7918 213° Southwest  Level Estimated
Tue 02:46:00 PM 42.4734 -1.8780 213° Southwest  Level Estimated
Tue 02:47:00 PM 42.3761 -1.9640 213° Southwest  Level Estimated
Tue 02:48:00 PM 42.2787 -2.0497 213° Southwest  Level Estimated
Tue 02:49:00 PM 42.1813 -2.1352 213° Southwest  Level Estimated
Tue 02:50:00 PM 42.0838 -2.2203 213° Southwest  Level Estimated
Tue 02:51:00 PM 41.9862 -2.3052 213° Southwest  Level Estimated
Tue 02:52:00 PM 41.8886 -2.3899 213° Southwest  Level Estimated
Tue 02:53:00 PM 41.7909 -2.4743 213° Southwest  Level Estimated
Tue 02:54:00 PM 41.6932 -2.5584 213° Southwest  Level Estimated
Tue 02:55:00 PM 41.5954 -2.6423 213° Southwest  Level Estimated
Tue 02:56:00 PM 41.4975 -2.7260 213° Southwest  Level Estimated
Tue 02:57:00 PM 41.3996 -2.8093 213° Southwest  Level Estimated
Tue 02:58:00 PM 41.3016 -2.8925 213° Southwest  Level Estimated
Tue 02:59:00 PM 41.2035 -2.9753 212° Southwest  Level Estimated
Tue 03:00:00 PM 41.1054 -3.0580 212° Southwest  Level Estimated
Tue 03:01:00 PM 41.0073 -3.1404 212° Southwest  Level Estimated
Tue 03:02:00 PM 40.9091 -3.2225 212° Southwest  Level Estimated
Tue 03:03:00 PM 40.8108 -3.3044 212° Southwest  Level Estimated
Tue 03:04:00 PM 40.7124 -3.3860 212° Southwest  Level Estimated
Tue 03:05:00 PM 40.6141 -3.4674 212° Southwest  Level Estimated
Tue 03:06:00 PM 40.5156 -3.5486 212° Southwest  Level Estimated
Tue 03:07:00 PM 40.4936 -3.5668 212° Southwest  Level Estimated
Tue 03:08:00 PM 40.4936 -3.5668 217° Southwest  Level Estimated
Tue 03:09:00 PM 40.4936 -3.5668 217° Southwest  Level Estimated
Tue 03:10:00 PM 40.4936 -3.5668 217° Southwest  Level Estimated
Tue 03:11:00 PM 40.4936 -3.5668 217° Southwest  Level Estimated
Tue 03:12:00 PM 40.4936 -3.5668 217° Southwest  Level Estimated
Tue 03:13:00 PM 40.4936 -3.5668 217° Southwest  Level Estimated
Tue 03:14:00 PM 40.4936 -3.5668 217° Southwest  Level Estimated
Tue 03:15:00 PM 40.4936 -3.5668 217° Southwest  Level Estimated
Tue 03:16:00 PM 40.4936 -3.5668 217° Southwest  Level Estimated
Tue 03:17:00 PM 40.4936 -3.5668 217° Southwest  Level Estimated
Tue 03:18:00 PM 40.4936 -3.5668 217° Southwest  Level Estimated
Tue 03:19:00 PM 40.4936 -3.5668 217° Southwest  Level Estimated
Tue 03:20:00 PM 40.4936 -3.5668 217° Southwest  Level Estimated
Tue 03:21:00 PM 40.4936 -3.5668 217° Southwest  Level Estimated

Login

Don't have an account? Register now (free) for customized features, flight alerts, and more!